createdAt,value
2023-03-31T00:01:21.474Z,9.80
2023-03-31T00:03:49.307Z,9.80
2023-03-31T00:06:19.276Z,9.80
2023-03-31T00:08:51.615Z,9.70
2023-03-31T00:11:20.460Z,9.80
2023-03-31T00:13:48.181Z,9.80
2023-03-31T00:16:16.349Z,9.70
2023-03-31T00:18:47.210Z,9.70
2023-03-31T00:21:24.777Z,9.70
2023-03-31T00:23:54.889Z,9.70
2023-03-31T00:26:23.181Z,9.70
2023-03-31T00:28:51.349Z,9.70
2023-03-31T00:31:19.921Z,9.60
2023-03-31T00:33:47.887Z,9.60
2023-03-31T00:36:21.312Z,9.50
2023-03-31T00:38:49.328Z,9.50
2023-03-31T00:41:18.709Z,9.50
2023-03-31T00:44:06.597Z,9.40
2023-03-31T00:46:36.954Z,9.30
2023-03-31T00:49:11.173Z,9.20
2023-03-31T00:51:39.252Z,9.20
2023-03-31T00:54:09.392Z,9.20
2023-03-31T00:56:42.669Z,9.10
2023-03-31T00:59:13.169Z,9.20
2023-03-31T01:01:43.369Z,9.10
2023-03-31T01:04:13.617Z,9.10
2023-03-31T01:06:50.348Z,9.00
2023-03-31T01:09:18.208Z,9.00
2023-03-31T01:11:48.592Z,8.90
2023-03-31T01:14:16.439Z,8.90
2023-03-31T01:16:44.198Z,8.80
2023-03-31T01:19:21.754Z,8.90
2023-03-31T01:22:18.446Z,8.80
2023-03-31T01:25:28.235Z,8.70
2023-03-31T01:28:18.162Z,8.70
2023-03-31T01:31:37.006Z,8.60
2023-03-31T01:34:27.212Z,8.60
2023-03-31T01:37:21.216Z,8.70
2023-03-31T01:40:16.392Z,8.70
2023-03-31T01:42:53.480Z,8.70
2023-03-31T01:45:34.186Z,8.80
2023-03-31T01:48:08.035Z,8.80
2023-03-31T01:50:39.529Z,8.90
2023-03-31T01:53:16.779Z,8.90
2023-03-31T01:55:51.894Z,9.00
2023-03-31T01:58:22.457Z,9.10
2023-03-31T02:00:57.100Z,9.10
2023-03-31T02:03:30.909Z,9.20
2023-03-31T02:06:04.188Z,9.20
2023-03-31T02:08:37.212Z,9.20
2023-03-31T02:11:06.451Z,9.20
2023-03-31T02:13:35.947Z,9.20
2023-03-31T02:16:09.620Z,9.20
2023-03-31T02:18:41.707Z,9.20
2023-03-31T02:21:10.820Z,9.20
2023-03-31T02:23:39.720Z,9.20
2023-03-31T02:26:13.722Z,9.30
2023-03-31T02:28:41.984Z,9.30
2023-03-31T02:31:22.766Z,9.40
2023-03-31T02:33:50.768Z,9.40
2023-03-31T02:36:19.579Z,9.40
2023-03-31T02:38:51.163Z,9.30
2023-03-31T02:41:20.361Z,9.30
2023-03-31T02:43:48.197Z,9.30
2023-03-31T02:46:15.950Z,9.30
2023-03-31T02:48:49.201Z,9.30
2023-03-31T02:51:36.823Z,9.30
2023-03-31T02:54:31.204Z,9.40
2023-03-31T02:57:32.961Z,9.40
2023-03-31T03:00:09.589Z,9.40
2023-03-31T03:02:50.976Z,9.40
2023-03-31T03:05:26.074Z,9.40
2023-03-31T03:08:03.197Z,9.40
2023-03-31T03:10:40.665Z,9.40
2023-03-31T03:13:16.542Z,9.40
2023-03-31T03:15:48.656Z,9.40
2023-03-31T03:18:16.865Z,9.40
2023-03-31T03:20:48.525Z,9.40
2023-03-31T03:23:16.771Z,9.40
2023-03-31T03:25:44.943Z,9.40
2023-03-31T03:28:14.014Z,9.30
2023-03-31T03:30:41.731Z,9.30
2023-03-31T03:33:09.938Z,9.30
2023-03-31T03:35:37.833Z,9.30
2023-03-31T03:38:05.685Z,9.20
2023-03-31T03:40:33.419Z,9.30
2023-03-31T03:43:01.147Z,9.30
2023-03-31T03:45:30.481Z,9.30
2023-03-31T03:47:58.282Z,9.20
2023-03-31T03:50:26.134Z,9.20
2023-03-31T03:52:53.853Z,9.20
2023-03-31T03:55:21.561Z,9.10
2023-03-31T03:57:49.306Z,9.00
2023-03-31T04:00:17.306Z,8.90
2023-03-31T04:02:47.143Z,8.90
2023-03-31T04:05:14.989Z,8.80
2023-03-31T04:07:42.780Z,8.80
2023-03-31T04:10:10.950Z,8.70
2023-03-31T04:12:38.736Z,8.60
2023-03-31T04:15:08.467Z,8.60
2023-03-31T04:17:36.876Z,8.70
2023-03-31T04:20:09.391Z,8.60
2023-03-31T04:22:40.488Z,8.60
2023-03-31T04:25:14.712Z,8.60
2023-03-31T04:27:46.622Z,8.40
2023-03-31T04:30:22.938Z,8.40
2023-03-31T04:32:53.498Z,8.30
2023-03-31T04:35:23.186Z,8.10
2023-03-31T04:37:58.709Z,8.10
2023-03-31T04:40:26.839Z,7.90
2023-03-31T04:42:54.596Z,7.90
2023-03-31T04:45:22.346Z,7.80
2023-03-31T04:47:50.108Z,7.90
2023-03-31T04:50:18.094Z,7.90
2023-03-31T04:52:47.142Z,7.90
2023-03-31T04:55:14.891Z,8.00
2023-03-31T04:57:43.085Z,8.00
2023-03-31T05:00:12.005Z,8.00
2023-03-31T05:02:39.796Z,8.10
2023-03-31T05:05:07.986Z,8.20
2023-03-31T05:07:35.754Z,8.20
2023-03-31T05:10:05.602Z,8.30
2023-03-31T05:12:35.960Z,8.30
2023-03-31T05:15:03.956Z,8.40
2023-03-31T05:17:32.943Z,8.40
2023-03-31T05:20:01.100Z,8.50
2023-03-31T05:22:29.160Z,8.50
2023-03-31T05:24:56.883Z,8.60
2023-03-31T05:27:25.979Z,8.60
2023-03-31T05:29:53.669Z,8.70
2023-03-31T05:32:21.574Z,8.70
2023-03-31T05:34:52.120Z,8.80
2023-03-31T05:37:21.020Z,8.90
2023-03-31T05:39:48.690Z,9.00
2023-03-31T05:42:16.457Z,9.00
2023-03-31T05:44:45.708Z,9.10
2023-03-31T05:47:13.933Z,9.20
2023-03-31T05:49:41.930Z,9.30
2023-03-31T05:52:10.936Z,9.30
2023-03-31T05:54:38.924Z,9.30
2023-03-31T05:57:06.702Z,9.30
2023-03-31T05:59:36.146Z,9.30
2023-03-31T06:02:05.867Z,9.20
2023-03-31T06:04:33.678Z,9.20
2023-03-31T06:07:01.514Z,9.30
2023-03-31T06:09:29.500Z,9.30
2023-03-31T06:11:57.343Z,9.30
2023-03-31T06:14:25.097Z,9.40
2023-03-31T06:16:52.787Z,9.50
2023-03-31T06:19:21.969Z,9.50
2023-03-31T06:21:49.699Z,9.60
2023-03-31T06:24:17.534Z,9.60
2023-03-31T06:26:45.325Z,9.60
2023-03-31T06:29:13.018Z,9.70
2023-03-31T06:31:40.868Z,9.80
2023-03-31T06:34:08.663Z,9.90
2023-03-31T06:36:38.790Z,10.00
2023-03-31T06:39:06.550Z,10.10
2023-03-31T06:41:34.270Z,10.20
2023-03-31T06:44:02.007Z,10.40
2023-03-31T06:46:29.775Z,10.50
2023-03-31T06:48:57.552Z,10.60
2023-03-31T06:51:25.472Z,10.80
2023-03-31T06:53:54.520Z,10.90
2023-03-31T06:56:22.224Z,11.00
2023-03-31T06:58:49.992Z,11.00
2023-03-31T07:01:17.733Z,11.10
2023-03-31T07:03:45.665Z,11.20
2023-03-31T07:06:13.420Z,11.40
2023-03-31T07:08:41.157Z,11.50
2023-03-31T07:11:10.472Z,11.70
2023-03-31T07:13:38.481Z,11.90
2023-03-31T07:16:08.017Z,12.20
2023-03-31T07:18:36.664Z,12.30
2023-03-31T07:21:09.011Z,12.40
2023-03-31T07:23:39.187Z,12.40
2023-03-31T07:26:06.983Z,12.50
2023-03-31T07:28:36.457Z,12.50
2023-03-31T07:31:04.626Z,12.50
2023-03-31T07:33:32.620Z,12.70
2023-03-31T07:36:10.740Z,12.70
2023-03-31T07:38:39.521Z,12.80
2023-03-31T07:41:10.994Z,13.00
2023-03-31T07:43:40.576Z,13.10
2023-03-31T07:46:14.333Z,13.40
2023-03-31T07:48:42.089Z,13.70
2023-03-31T07:51:09.827Z,14.10
2023-03-31T07:53:38.187Z,14.30
2023-03-31T07:56:06.338Z,14.60
2023-03-31T07:58:34.110Z,14.60
2023-03-31T08:01:03.470Z,14.50
2023-03-31T08:03:32.025Z,14.30
2023-03-31T08:05:59.869Z,14.40
2023-03-31T08:08:27.766Z,14.70
2023-03-31T08:10:55.493Z,15.20
2023-03-31T08:13:23.269Z,15.80
2023-03-31T08:15:51.029Z,16.60
2023-03-31T08:18:20.381Z,16.90
2023-03-31T08:20:49.998Z,16.60
2023-03-31T08:23:17.753Z,16.20
2023-03-31T08:25:45.777Z,15.80
2023-03-31T08:28:14.075Z,15.40
2023-03-31T08:30:42.382Z,14.90
2023-03-31T08:33:12.274Z,14.50
2023-03-31T08:35:41.571Z,14.40
2023-03-31T08:38:09.287Z,14.30
2023-03-31T08:40:40.878Z,14.30
2023-03-31T08:43:16.497Z,14.70
2023-03-31T08:45:47.701Z,15.40
2023-03-31T08:48:25.619Z,16.70
2023-03-31T08:50:59.432Z,19.70
2023-03-31T08:53:31.086Z,21.60
2023-03-31T08:56:00.030Z,22.90
2023-03-31T08:58:37.093Z,21.10
2023-03-31T09:01:13.901Z,20.20
2023-03-31T09:03:50.598Z,19.80
2023-03-31T09:06:23.439Z,19.30
2023-03-31T09:08:52.973Z,19.00
2023-03-31T09:11:28.565Z,19.20
2023-03-31T09:14:12.693Z,19.80
2023-03-31T09:16:48.709Z,18.10
2023-03-31T09:19:20.826Z,16.80
2023-03-31T09:21:52.650Z,15.60
2023-03-31T09:24:23.996Z,15.00
2023-03-31T09:26:55.049Z,14.80
2023-03-31T09:29:29.554Z,14.80
2023-03-31T09:32:03.016Z,15.00
2023-03-31T09:34:33.086Z,15.10
2023-03-31T09:37:02.159Z,14.70
2023-03-31T09:39:29.958Z,14.30
2023-03-31T09:41:57.704Z,14.00
2023-03-31T09:44:37.637Z,14.00
2023-03-31T09:47:10.922Z,14.20
2023-03-31T09:49:40.439Z,14.30
2023-03-31T09:52:30.561Z,14.40
2023-03-31T09:55:02.196Z,14.60
2023-03-31T09:57:34.475Z,14.80
2023-03-31T10:00:16.164Z,14.70
2023-03-31T10:02:46.018Z,14.70
2023-03-31T10:05:29.153Z,14.70
2023-03-31T10:08:23.272Z,14.90
2023-03-31T10:10:53.628Z,15.00
2023-03-31T10:13:24.336Z,15.30
2023-03-31T10:15:57.227Z,16.10
2023-03-31T10:18:34.596Z,16.30
2023-03-31T10:21:04.900Z,17.00
2023-03-31T10:23:35.763Z,17.20
2023-03-31T10:26:05.496Z,17.20
2023-03-31T10:28:36.059Z,16.80
2023-03-31T10:31:05.051Z,16.30
2023-03-31T10:33:34.895Z,15.80
2023-03-31T10:36:08.992Z,15.50
2023-03-31T10:38:42.623Z,15.00
2023-03-31T10:41:11.142Z,14.50
2023-03-31T10:43:42.149Z,14.10
2023-03-31T10:46:10.641Z,14.00
2023-03-31T10:48:41.082Z,14.00
2023-03-31T10:51:15.877Z,14.40
2023-03-31T10:53:46.418Z,15.20
2023-03-31T10:56:36.192Z,16.30
2023-03-31T10:59:20.058Z,16.70
2023-03-31T11:02:00.585Z,16.20
2023-03-31T11:04:43.317Z,15.70
2023-03-31T11:07:21.562Z,15.60
2023-03-31T11:09:57.791Z,16.10
2023-03-31T11:12:32.493Z,16.30
2023-03-31T11:15:11.757Z,16.20
2023-03-31T11:18:04.211Z,16.20
2023-03-31T11:20:40.696Z,16.30
2023-03-31T11:23:16.738Z,16.20
2023-03-31T11:25:54.273Z,16.20
2023-03-31T11:28:39.216Z,15.90
2023-03-31T11:31:28.644Z,15.80
2023-03-31T11:34:17.669Z,15.60
2023-03-31T11:37:02.431Z,15.10
2023-03-31T11:39:44.401Z,14.60
2023-03-31T11:42:19.097Z,14.50
2023-03-31T11:44:53.018Z,14.50
2023-03-31T11:47:25.047Z,14.60
2023-03-31T11:49:56.346Z,14.40
2023-03-31T11:52:30.541Z,14.70
2023-03-31T11:55:03.347Z,14.90
2023-03-31T11:57:38.736Z,15.00
2023-03-31T12:00:13.400Z,14.90
2023-03-31T12:02:49.963Z,14.60
2023-03-31T12:05:19.160Z,14.00
2023-03-31T12:07:53.298Z,13.30
2023-03-31T12:10:23.697Z,13.20
2023-03-31T12:13:03.004Z,13.00
2023-03-31T12:15:34.650Z,13.00
2023-03-31T12:18:11.356Z,13.20
2023-03-31T12:20:43.659Z,13.30
2023-03-31T12:23:16.379Z,13.40
2023-03-31T12:25:53.901Z,13.40
2023-03-31T12:28:24.974Z,13.40
2023-03-31T12:30:54.926Z,13.30
2023-03-31T12:33:27.099Z,13.10
2023-03-31T12:36:08.547Z,13.00
2023-03-31T12:38:47.775Z,13.00
2023-03-31T12:41:20.979Z,12.90
2023-03-31T12:44:10.260Z,12.90
2023-03-31T12:46:51.696Z,12.90
2023-03-31T12:49:36.959Z,12.70
2023-03-31T12:52:08.269Z,12.60
2023-03-31T12:55:03.712Z,12.40
2023-03-31T12:57:31.530Z,12.20
2023-03-31T13:00:22.593Z,12.10
2023-03-31T13:02:51.419Z,12.00
2023-03-31T13:05:48.600Z,11.90
2023-03-31T13:08:51.455Z,11.90
2023-03-31T13:11:20.367Z,11.90
2023-03-31T13:14:00.867Z,11.90
2023-03-31T13:16:30.886Z,11.90
2023-03-31T13:18:58.911Z,11.90
2023-03-31T13:21:27.099Z,11.80
2023-03-31T13:24:00.163Z,11.70
2023-03-31T13:26:38.948Z,11.70
2023-03-31T13:29:44.773Z,11.60
2023-03-31T13:32:23.049Z,11.40
2023-03-31T13:34:57.529Z,11.40
2023-03-31T13:37:47.389Z,11.40
2023-03-31T13:40:52.641Z,11.20
2023-03-31T13:43:46.737Z,11.10
2023-03-31T13:46:36.631Z,11.10
2023-03-31T13:49:17.511Z,11.20
2023-03-31T13:51:55.476Z,11.10
2023-03-31T13:54:54.971Z,11.00
2023-03-31T13:57:50.030Z,10.90
2023-03-31T14:00:31.160Z,10.80
2023-03-31T14:03:13.529Z,10.80
2023-03-31T14:05:44.776Z,10.90
2023-03-31T14:08:16.096Z,10.90
2023-03-31T14:10:44.881Z,10.90
2023-03-31T14:13:15.295Z,10.90
2023-03-31T14:15:50.077Z,10.90
2023-03-31T14:18:22.380Z,10.90
2023-03-31T14:20:59.685Z,10.80
2023-03-31T14:23:36.820Z,10.80
2023-03-31T14:26:08.165Z,10.90
2023-03-31T14:28:58.306Z,10.80
2023-03-31T14:31:35.445Z,10.90
2023-03-31T14:34:19.455Z,10.90
2023-03-31T14:36:57.915Z,10.90
2023-03-31T14:39:29.999Z,10.90
2023-03-31T14:42:01.565Z,11.10
2023-03-31T14:44:30.494Z,11.00
2023-03-31T14:46:58.987Z,11.00
2023-03-31T14:49:28.560Z,11.00
2023-03-31T14:52:03.359Z,11.00
2023-03-31T14:54:37.767Z,10.90
2023-03-31T14:57:06.508Z,10.90
2023-03-31T14:59:37.479Z,10.90
2023-03-31T15:02:12.361Z,10.80
2023-03-31T15:04:45.212Z,10.90
2023-03-31T15:07:14.803Z,10.90
2023-03-31T15:09:49.540Z,10.90
2023-03-31T15:12:19.543Z,10.90
2023-03-31T15:14:50.172Z,10.90
2023-03-31T15:17:23.360Z,10.80
2023-03-31T15:19:59.228Z,10.80
2023-03-31T15:22:30.684Z,10.80
2023-03-31T15:24:58.728Z,10.80
2023-03-31T15:30:24.744Z,10.90
2023-03-31T15:32:56.829Z,10.80
2023-03-31T15:35:32.025Z,10.80
2023-03-31T15:38:18.383Z,10.80
2023-03-31T15:40:50.641Z,10.80
2023-03-31T15:43:25.909Z,10.90
2023-03-31T15:45:55.646Z,10.90
2023-03-31T15:48:28.317Z,11.00
2023-03-31T15:51:01.278Z,10.90
2023-03-31T15:53:37.988Z,11.00
2023-03-31T15:56:06.822Z,10.90
2023-03-31T15:58:53.822Z,10.90
2023-03-31T16:01:21.715Z,10.80
2023-03-31T16:03:49.808Z,10.80
2023-03-31T16:06:23.467Z,10.90
2023-03-31T16:08:58.344Z,10.90
2023-03-31T16:11:29.127Z,11.00
2023-03-31T16:14:00.850Z,10.90
2023-03-31T16:16:30.838Z,10.90
2023-03-31T16:19:05.010Z,10.80
2023-03-31T16:21:37.788Z,10.80
2023-03-31T16:24:07.806Z,10.80
2023-03-31T16:26:37.310Z,10.80
2023-03-31T16:29:06.611Z,10.70
2023-03-31T16:31:37.229Z,10.80
2023-03-31T16:34:07.516Z,10.80
2023-03-31T16:36:35.911Z,10.80
2023-03-31T16:39:05.175Z,10.70
2023-03-31T16:41:35.883Z,10.70
2023-03-31T16:44:04.462Z,10.70
2023-03-31T16:46:32.364Z,10.70
2023-03-31T16:49:00.303Z,10.70
2023-03-31T16:51:28.134Z,10.70
2023-03-31T16:53:58.446Z,10.60
2023-03-31T16:56:27.685Z,10.50
2023-03-31T16:58:57.348Z,10.50
2023-03-31T17:01:25.453Z,10.50
2023-03-31T17:03:53.387Z,10.50
2023-03-31T17:06:21.278Z,10.40
2023-03-31T17:09:03.647Z,10.40
2023-03-31T17:11:34.121Z,10.40
2023-03-31T17:14:05.266Z,10.30
2023-03-31T17:19:20.760Z,10.20
2023-03-31T17:21:49.465Z,10.30
2023-03-31T17:24:17.262Z,10.20
2023-03-31T17:26:45.720Z,10.20
2023-03-31T17:29:16.639Z,10.20
2023-03-31T17:31:44.645Z,10.20
2023-03-31T17:34:13.386Z,10.20
2023-03-31T17:36:44.105Z,10.20
2023-03-31T17:39:12.098Z,10.20
2023-03-31T17:41:41.887Z,10.20
2023-03-31T17:44:09.819Z,10.10
2023-03-31T17:46:39.195Z,10.10
2023-03-31T17:49:07.189Z,10.10
2023-03-31T17:51:36.401Z,10.00
2023-03-31T17:54:04.426Z,10.00
2023-03-31T17:56:32.186Z,9.90
2023-03-31T17:58:59.947Z,9.80
2023-03-31T18:01:28.002Z,9.70
2023-03-31T18:03:58.361Z,9.70
2023-03-31T18:06:26.291Z,9.60
2023-03-31T18:08:54.300Z,9.60
2023-03-31T18:11:22.063Z,9.50
2023-03-31T18:13:50.059Z,9.50
2023-03-31T18:16:18.379Z,9.50
2023-03-31T18:18:46.298Z,9.40
2023-03-31T18:21:15.564Z,9.30
2023-03-31T18:23:43.403Z,9.30
2023-03-31T18:26:13.170Z,9.20
2023-03-31T18:28:41.671Z,9.30
2023-03-31T18:31:10.686Z,9.30
2023-03-31T18:33:38.583Z,9.40
2023-03-31T18:36:07.133Z,9.40
2023-03-31T18:38:37.076Z,9.60
2023-03-31T18:41:05.199Z,9.60
2023-03-31T18:43:33.481Z,9.60
2023-03-31T18:46:01.600Z,9.60
2023-03-31T18:48:29.599Z,9.60
2023-03-31T18:50:57.546Z,9.60
2023-03-31T18:53:26.158Z,9.60
2023-03-31T18:55:57.425Z,9.50
2023-03-31T18:58:25.977Z,9.50
2023-03-31T19:00:53.783Z,9.50
2023-03-31T19:03:22.216Z,9.50
2023-03-31T19:05:50.653Z,9.60
2023-03-31T19:08:18.399Z,9.60
2023-03-31T19:10:46.244Z,9.60
2023-03-31T19:13:16.874Z,9.60
2023-03-31T19:15:44.741Z,9.60
2023-03-31T19:18:14.536Z,9.60
2023-03-31T19:20:42.299Z,9.60
2023-03-31T19:23:10.114Z,9.60
2023-03-31T19:25:37.832Z,9.60
2023-03-31T19:28:05.597Z,9.60
2023-03-31T19:30:35.179Z,9.70
2023-03-31T19:33:03.614Z,9.70
2023-03-31T19:35:31.908Z,9.60
2023-03-31T19:37:59.777Z,9.60
2023-03-31T19:40:28.174Z,9.60
2023-03-31T19:42:56.171Z,9.60
2023-03-31T19:45:23.917Z,9.50
2023-03-31T19:47:52.992Z,9.60
2023-03-31T19:50:20.765Z,9.50
2023-03-31T19:52:49.975Z,9.50
2023-03-31T19:55:17.942Z,9.50
2023-03-31T19:57:45.986Z,9.50
2023-03-31T20:00:18.260Z,9.50
2023-03-31T20:02:46.305Z,9.50
2023-03-31T20:05:15.505Z,9.60
2023-03-31T20:07:43.222Z,9.60
2023-03-31T20:10:13.865Z,9.60
2023-03-31T20:12:42.137Z,9.60
2023-03-31T20:15:10.080Z,9.50
2023-03-31T20:17:38.639Z,9.50
2023-03-31T20:20:08.134Z,9.40
2023-03-31T20:22:37.238Z,9.40
2023-03-31T20:25:06.491Z,9.40
2023-03-31T20:27:34.252Z,9.40
2023-03-31T20:30:01.951Z,9.40
2023-03-31T20:32:29.700Z,9.30
2023-03-31T20:34:57.990Z,9.30
2023-03-31T20:37:25.767Z,9.30
2023-03-31T20:39:55.046Z,9.30
2023-03-31T20:42:22.832Z,9.30
2023-03-31T20:44:50.561Z,9.30
2023-03-31T20:47:18.401Z,9.20
2023-03-31T20:49:46.569Z,9.20
2023-03-31T20:52:14.380Z,9.10
2023-03-31T20:54:42.370Z,9.10
2023-03-31T20:57:11.703Z,9.10
2023-03-31T20:59:39.724Z,9.10
2023-03-31T21:02:07.678Z,9.10
2023-03-31T21:04:35.464Z,9.10
2023-03-31T21:07:03.196Z,9.10
2023-03-31T21:09:31.104Z,9.10
2023-03-31T21:11:58.807Z,9.10
2023-03-31T21:14:27.856Z,9.10
2023-03-31T21:16:55.588Z,9.00
2023-03-31T21:19:23.336Z,9.10
2023-03-31T21:21:51.060Z,9.00
2023-03-31T21:24:18.810Z,9.10
2023-03-31T21:26:46.540Z,9.00
2023-03-31T21:29:14.246Z,9.00
2023-03-31T21:31:45.023Z,9.00
2023-03-31T21:34:12.845Z,9.00
2023-03-31T21:36:40.608Z,9.00
2023-03-31T21:39:09.662Z,9.00
2023-03-31T21:41:39.790Z,9.00
2023-03-31T21:44:08.862Z,9.00
2023-03-31T21:46:36.734Z,9.00
2023-03-31T21:49:06.274Z,9.00
2023-03-31T21:51:34.008Z,9.00
2023-03-31T21:54:01.917Z,9.00
2023-03-31T21:56:31.930Z,8.90
2023-03-31T21:59:00.429Z,8.90
2023-03-31T22:01:28.203Z,8.90
2023-03-31T22:03:55.942Z,8.90
2023-03-31T22:06:24.976Z,8.90
2023-03-31T22:08:52.734Z,8.90
2023-03-31T22:11:20.502Z,8.90
2023-03-31T22:13:48.213Z,8.90
2023-03-31T22:16:18.389Z,8.80
2023-03-31T22:18:47.039Z,8.80
2023-03-31T22:21:17.033Z,8.80
2023-03-31T22:23:46.318Z,8.90
2023-03-31T22:26:14.052Z,8.90
2023-03-31T22:28:42.011Z,8.90
2023-03-31T22:31:09.816Z,8.80
2023-03-31T22:33:37.602Z,8.80
2023-03-31T22:36:06.095Z,8.90
2023-03-31T22:38:34.115Z,8.80
2023-03-31T22:41:03.202Z,8.80
2023-03-31T22:43:31.083Z,8.80
2023-03-31T22:46:02.592Z,8.80
2023-03-31T22:48:30.311Z,8.80
2023-03-31T22:50:58.620Z,8.80
2023-03-31T22:53:26.492Z,8.80
2023-03-31T22:55:54.745Z,8.80
2023-03-31T22:58:23.938Z,8.80
2023-03-31T23:00:57.267Z,8.80
2023-03-31T23:03:25.578Z,8.80
2023-03-31T23:05:53.658Z,8.70
2023-03-31T23:08:21.440Z,8.70
2023-03-31T23:10:55.684Z,8.70
2023-03-31T23:13:25.462Z,8.70
2023-03-31T23:15:53.394Z,8.60
2023-03-31T23:18:22.008Z,8.70
2023-03-31T23:20:49.956Z,8.70
2023-03-31T23:23:17.719Z,8.70
2023-03-31T23:25:45.532Z,8.70
2023-03-31T23:28:13.565Z,8.70
2023-03-31T23:30:42.622Z,8.70
2023-03-31T23:33:10.352Z,8.70
2023-03-31T23:35:38.072Z,8.70
2023-03-31T23:38:06.337Z,8.70
2023-03-31T23:40:34.107Z,8.70
2023-03-31T23:43:01.834Z,8.70
2023-03-31T23:45:29.752Z,8.80
2023-03-31T23:47:59.093Z,8.80
2023-03-31T23:50:28.176Z,8.80
2023-03-31T23:52:59.366Z,8.80
2023-03-31T23:55:27.405Z,8.80
2023-03-31T23:57:55.526Z,8.80
